Impacts TAF Board
For situational awareness. Not to be used for flight planning purposes.
IDs:

KBWI - Baltimore-Washington, MD, US

Issued at 1720 UTC 12 Dec 2018
Updated at 1859 UTC 12 Dec 2018
Potential Impact None Slight Moderate High
Time<<13/19Z 13/20Z 13/21Z 13/22Z 13/23Z 14/00Z 14/01Z 14/02Z 14/03Z 14/04Z 14/05Z 14/06Z 14/07Z
Type PRVL PRVL PRVL PRVL PRVL
VIS >6 >6 >6 >6 >6
CIG 120 120 -- -- --
Cover BKN BKN SCT SCT SCT
FltCat VFR VFR VFR VFR VFR
WX -- -- -- -- --
WDir 160 160 100 100 100
WSpd 4 4 5 5 5
WGst -- -- -- -- --
Raw TAF
KBWI 121720Z 1218/1324 29008KT P6SM SCT200
  FM130000 16004KT P6SM BKN120
  FM132100 10005KT P6SM SCT040


METAR Board
Radar Display
Forecast Discussion
For situational awareness. Not to be used for flight planning purposes.